Almond, Wisconsin
Current Conditions -  °F | °C
As of 3:56 PM on Tuesday 21 Oct 2014 (Local Time) from KY50 Reporting Station
Overcast Overcast  
Wind Chill: 11°   Ceiling: 100
Heat Index: 11°   Visibility: 10mi
Dew Point:   Wind: 6mph
Humidity: 52%   Direction: 80°E
Pressure: 30.23"   Gusts: NA
Location:  44.26°N, 89.41°W
Report Text: KY50 212056Z AUTO 08005KT 10SM OVC001 11/02 A3023 RMK AO2 TSNO 56009 T01110016 SLP236
Loading
Personal Weather Stations






























Interactive Weather Map
Tropical Storm Tracking
New forecast layout! Learn more

10-Day Weather Forecast

Advertisements
Track Severe Weather on mobile